Airfield :
LOGIN :

Register | Disclaimer

   EN    FR    IT 

 










Legend :    VFR   Marginal VFR   IFR   Intensive IFR   Very Intensive IFR
Visi :
Ceiling :
>= 8 km
>= 3000ft
5 to 8 km
1000 to 3000 ft
1500m to 5 km
500 to 1000 ft
800 to 1500m
200 to 500 ft
< 800m
< 200 ft
Symbols :   Thunderstorms  Fog  Heavy snow  Heavy precipitations  Wind > 20 kt
SIGMETs :     Misc.  Thunderstorms  Icing  Turbulence  Mountain Waves  Volcanic Ashes






- Airport Elevation : 19 ft
- IATA code : BEB


EGPL - Benbecula

CURRENT METAR :
  • 240350Z AUTO 27013KT 9999 FEW007/// SCT022/// BKN029/// 07/04 Q1018

EXPIRED METARs :
  • 240320Z AUTO 28014KT 9999 BKN030/// OVC038/// 07/04 Q1018
  • 240250Z AUTO 27015KT 9999 SCT026/// OVC031/// 08/04 Q1018
  • 240220Z AUTO 28014KT 9999 SCT023/// OVC031/// 08/04 Q1019
  • 240150Z AUTO 27015KT 9999 OVC033/// 08/04 Q1019
  • 240120Z AUTO 28013KT 9999 FEW026/// OVC031/// 08/05 Q1019

TAF TAF EGPL
Valid from the 24 at 03:00 until the 24 at 12:00 UTC


240154Z 2403/2412 27014KT 9999 FEW014 SCT024
PROB30
TEMPO 2403/2412 6000 SHRA BKN014
ATIS : +44 1870 604 818



MET'MAP, your aeronautical weather chart ! - Copyright ORBIFLY December 2007 - Disclaimer

ORBIFLY MET'MAP TEAM :

Programming & Development : Alexandra Zaïnal
Concept & original design : Baudouin d'Aumeries
Assistance for programming : Marc-Olivier Méhu
Technical & hardware support : Manuel Goepfert

Contact : metmap@orbifly.com




SOURCES & CREDITS :

   NOAA